長春 の空港の天気 - METARとTAF

長春龍嘉国際空港 ( ZYCC / CGQ ) - 中国 吉林省長春市
飛行場実況気象(Metar)
観測時間01/29 16:00 CST (01/29 08:00 UTC)
風向・風速西北西 2m/s
視程10km以上
天気現象
なし
気温-8℃
湿度44%
気圧1020hPa
METARZYCC 290800Z 30002MPS 250V350 CAVOK M08/M18 Q1020 NOSIG
過去の天気等 Google飛行場航空写真 Wunderground天気予報

過去48時間のMETAR

飛行場予報(TAF)
発表時間: 1/29 11:03 CST (1/29 03:03 UTC)
予報対象時間: 29日14時 CST ~ 30日14時 CST
風向・風速西 4m/s
視程6000m
なし
TAF ZYCC 290303Z 2906/3006 26004MPS 6000 NSC TXM08/2906Z TNM17/2921Z